sensor_id;sensor_type;location;lat;lon;timestamp;P1;durP1;ratioP1;P2;durP2;ratioP2
45274;SDS011;31019;43.780;25.948;2022-08-01T00:02:32;37.35;;;35.45;;
45274;SDS011;31019;43.780;25.948;2022-08-01T00:05:15;35.38;;;33.35;;
45274;SDS011;31019;43.780;25.948;2022-08-01T00:07:51;57.65;;;54.85;;
45274;SDS011;31019;43.780;25.948;2022-08-01T00:10:18;30.42;;;28.60;;
45274;SDS011;31019;43.780;25.948;2022-08-01T00:12:47;30.98;;;29.17;;
45274;SDS011;31019;43.780;25.948;2022-08-01T00:15:16;33.22;;;31.50;;
45274;SDS011;31019;43.780;25.948;2022-08-01T00:17:47;42.08;;;39.97;;
45274;SDS011;31019;43.780;25.948;2022-08-01T00:20:24;37.60;;;35.42;;
45274;SDS011;31019;43.780;25.948;2022-08-01T00:23:03;35.47;;;33.45;;
45274;SDS011;31019;43.780;25.948;2022-08-01T00:25:41;37.92;;;35.83;;
45274;SDS011;31019;43.780;25.948;2022-08-01T00:28:09;39.58;;;37.60;;
45274;SDS011;31019;43.780;25.948;2022-08-01T00:30:39;28.90;;;27.08;;
45274;SDS011;31019;43.780;25.948;2022-08-01T00:33:09;34.67;;;32.78;;
45274;SDS011;31019;43.780;25.948;2022-08-01T00:35:36;35.28;;;33.28;;
45274;SDS011;31019;43.780;25.948;2022-08-01T00:38:20;42.40;;;40.20;;
45274;SDS011;31019;43.780;25.948;2022-08-01T00:41:00;38.80;;;36.55;;
45274;SDS011;31019;43.780;25.948;2022-08-01T00:43:39;39.42;;;37.42;;
45274;SDS011;31019;43.780;25.948;2022-08-01T00:46:07;35.13;;;33.13;;
45274;SDS011;31019;43.780;25.948;2022-08-01T00:48:44;33.67;;;31.67;;
45274;SDS011;31019;43.780;25.948;2022-08-01T00:51:16;42.70;;;40.47;;
45274;SDS011;31019;43.780;25.948;2022-08-01T00:53:50;52.65;;;50.03;;
45274;SDS011;31019;43.780;25.948;2022-08-01T00:56:18;46.83;;;44.43;;
45274;SDS011;31019;43.780;25.948;2022-08-01T00:58:55;44.78;;;42.65;;
45274;SDS011;31019;43.780;25.948;2022-08-01T01:01:39;63.58;;;60.58;;
45274;SDS011;31019;43.780;25.948;2022-08-01T01:04:07;48.53;;;45.90;;
45274;SDS011;31019;43.780;25.948;2022-08-01T01:09:28;45.25;;;42.55;;
45274;SDS011;31019;43.780;25.948;2022-08-01T01:12:07;37.90;;;35.63;;
45274;SDS011;31019;43.780;25.948;2022-08-01T01:14:53;35.08;;;33.25;;
45274;SDS011;31019;43.780;25.948;2022-08-01T01:17:31;46.00;;;43.70;;
45274;SDS011;31019;43.780;25.948;2022-08-01T01:20:08;38.80;;;36.78;;
45274;SDS011;31019;43.780;25.948;2022-08-01T01:22:45;46.83;;;44.25;;
45274;SDS011;31019;43.780;25.948;2022-08-01T01:25:32;42.85;;;40.72;;
45274;SDS011;31019;43.780;25.948;2022-08-01T01:28:27;41.45;;;39.03;;
45274;SDS011;31019;43.780;25.948;2022-08-01T01:31:04;39.70;;;37.60;;
45274;SDS011;31019;43.780;25.948;2022-08-01T01:33:44;37.58;;;35.42;;
45274;SDS011;31019;43.780;25.948;2022-08-01T01:36:18;52.03;;;49.53;;
45274;SDS011;31019;43.780;25.948;2022-08-01T01:38:54;37.42;;;35.50;;
45274;SDS011;31019;43.780;25.948;2022-08-01T01:41:25;37.67;;;35.60;;
45274;SDS011;31019;43.780;25.948;2022-08-01T01:44:03;35.17;;;33.17;;
45274;SDS011;31019;43.780;25.948;2022-08-01T01:46:56;37.42;;;35.33;;
45274;SDS011;31019;43.780;25.948;2022-08-01T01:49:32;36.42;;;34.25;;
45274;SDS011;31019;43.780;25.948;2022-08-01T01:52:00;30.73;;;28.92;;
45274;SDS011;31019;43.780;25.948;2022-08-01T01:54:28;36.20;;;34.20;;
45274;SDS011;31019;43.780;25.948;2022-08-01T01:57:02;32.25;;;30.13;;
45274;SDS011;31019;43.780;25.948;2022-08-01T01:59:33;39.08;;;36.78;;
45274;SDS011;31019;43.780;25.948;2022-08-01T02:02:04;54.10;;;50.63;;
45274;SDS011;31019;43.780;25.948;2022-08-01T02:04:33;48.15;;;45.80;;
45274;SDS011;31019;43.780;25.948;2022-08-01T02:07:03;39.53;;;37.55;;
45274;SDS011;31019;43.780;25.948;2022-08-01T02:09:32;47.22;;;44.60;;
45274;SDS011;31019;43.780;25.948;2022-08-01T02:12:02;38.45;;;36.45;;
45274;SDS011;31019;43.780;25.948;2022-08-01T02:14:30;47.70;;;45.42;;
45274;SDS011;31019;43.780;25.948;2022-08-01T02:17:01;41.88;;;39.67;;
45274;SDS011;31019;43.780;25.948;2022-08-01T02:19:30;40.13;;;37.97;;
45274;SDS011;31019;43.780;25.948;2022-08-01T02:21:59;43.53;;;41.33;;
45274;SDS011;31019;43.780;25.948;2022-08-01T02:24:30;41.22;;;39.13;;
45274;SDS011;31019;43.780;25.948;2022-08-01T02:27:05;38.25;;;36.15;;
45274;SDS011;31019;43.780;25.948;2022-08-01T02:29:36;49.20;;;46.53;;
45274;SDS011;31019;43.780;25.948;2022-08-01T02:32:08;35.60;;;33.15;;
45274;SDS011;31019;43.780;25.948;2022-08-01T02:34:40;37.45;;;35.35;;
45274;SDS011;31019;43.780;25.948;2022-08-01T02:37:10;37.38;;;35.35;;
45274;SDS011;31019;43.780;25.948;2022-08-01T02:39:37;47.97;;;45.67;;
45274;SDS011;31019;43.780;25.948;2022-08-01T02:42:06;42.55;;;40.45;;
45274;SDS011;31019;43.780;25.948;2022-08-01T02:44:37;41.25;;;39.15;;
45274;SDS011;31019;43.780;25.948;2022-08-01T02:47:08;48.63;;;46.13;;
45274;SDS011;31019;43.780;25.948;2022-08-01T02:49:36;40.63;;;38.42;;
45274;SDS011;31019;43.780;25.948;2022-08-01T02:52:08;58.92;;;56.22;;
45274;SDS011;31019;43.780;25.948;2022-08-01T02:54:38;49.90;;;47.45;;
45274;SDS011;31019;43.780;25.948;2022-08-01T02:57:07;49.22;;;46.55;;
45274;SDS011;31019;43.780;25.948;2022-08-01T02:59:36;45.72;;;43.22;;
45274;SDS011;31019;43.780;25.948;2022-08-01T03:02:06;47.25;;;44.95;;
45274;SDS011;31019;43.780;25.948;2022-08-01T03:04:35;31.00;;;29.13;;
45274;SDS011;31019;43.780;25.948;2022-08-01T03:07:05;30.58;;;28.52;;
45274;SDS011;31019;43.780;25.948;2022-08-01T03:09:36;29.02;;;27.23;;
45274;SDS011;31019;43.780;25.948;2022-08-01T03:12:06;31.10;;;29.10;;
45274;SDS011;31019;43.780;25.948;2022-08-01T03:14:37;29.00;;;27.20;;
45274;SDS011;31019;43.780;25.948;2022-08-01T03:17:06;28.45;;;26.75;;
45274;SDS011;31019;43.780;25.948;2022-08-01T03:19:36;25.10;;;23.40;;
45274;SDS011;31019;43.780;25.948;2022-08-01T03:22:08;24.83;;;23.02;;
45274;SDS011;31019;43.780;25.948;2022-08-01T03:24:38;27.05;;;24.73;;
45274;SDS011;31019;43.780;25.948;2022-08-01T03:27:06;24.27;;;22.23;;
45274;SDS011;31019;43.780;25.948;2022-08-01T03:29:34;24.23;;;22.63;;
45274;SDS011;31019;43.780;25.948;2022-08-01T03:32:02;25.55;;;23.75;;
45274;SDS011;31019;43.780;25.948;2022-08-01T03:34:31;24.73;;;23.02;;
45274;SDS011;31019;43.780;25.948;2022-08-01T03:36:59;26.80;;;25.05;;
45274;SDS011;31019;43.780;25.948;2022-08-01T03:39:33;29.63;;;27.67;;
45274;SDS011;31019;43.780;25.948;2022-08-01T03:42:12;30.45;;;28.25;;
45274;SDS011;31019;43.780;25.948;2022-08-01T03:44:42;27.33;;;25.60;;
45274;SDS011;31019;43.780;25.948;2022-08-01T03:47:19;26.65;;;24.73;;
45274;SDS011;31019;43.780;25.948;2022-08-01T03:49:50;28.42;;;26.50;;
45274;SDS011;31019;43.780;25.948;2022-08-01T03:52:20;27.58;;;25.67;;
45274;SDS011;31019;43.780;25.948;2022-08-01T03:54:49;28.75;;;27.05;;
45274;SDS011;31019;43.780;25.948;2022-08-01T03:59:47;31.20;;;29.27;;
45274;SDS011;31019;43.780;25.948;2022-08-01T04:02:15;28.50;;;26.23;;
45274;SDS011;31019;43.780;25.948;2022-08-01T04:04:43;28.98;;;27.23;;
45274;SDS011;31019;43.780;25.948;2022-08-01T04:07:21;26.20;;;24.50;;
45274;SDS011;31019;43.780;25.948;2022-08-01T04:09:50;26.50;;;24.60;;
45274;SDS011;31019;43.780;25.948;2022-08-01T04:12:17;25.10;;;23.50;;
45274;SDS011;31019;43.780;25.948;2022-08-01T04:14:44;27.15;;;25.45;;
45274;SDS011;31019;43.780;25.948;2022-08-01T04:17:12;28.58;;;26.60;;
45274;SDS011;31019;43.780;25.948;2022-08-01T04:19:38;28.52;;;26.92;;
45274;SDS011;31019;43.780;25.948;2022-08-01T04:22:05;28.65;;;26.95;;
45274;SDS011;31019;43.780;25.948;2022-08-01T04:24:34;27.50;;;25.77;;
45274;SDS011;31019;43.780;25.948;2022-08-01T04:27:05;25.48;;;23.90;;
45274;SDS011;31019;43.780;25.948;2022-08-01T04:29:36;25.38;;;23.80;;
45274;SDS011;31019;43.780;25.948;2022-08-01T04:32:04;25.27;;;23.67;;
45274;SDS011;31019;43.780;25.948;2022-08-01T04:34:33;24.40;;;22.55;;
45274;SDS011;31019;43.780;25.948;2022-08-01T04:37:02;24.20;;;22.60;;
45274;SDS011;31019;43.780;25.948;2022-08-01T04:39:31;26.92;;;24.58;;
45274;SDS011;31019;43.780;25.948;2022-08-01T04:42:01;24.77;;;23.17;;
45274;SDS011;31019;43.780;25.948;2022-08-01T04:44:33;26.20;;;24.50;;
45274;SDS011;31019;43.780;25.948;2022-08-01T04:47:00;26.65;;;25.05;;
45274;SDS011;31019;43.780;25.948;2022-08-01T04:49:29;25.75;;;24.00;;
45274;SDS011;31019;43.780;25.948;2022-08-01T04:51:57;23.80;;;22.10;;
45274;SDS011;31019;43.780;25.948;2022-08-01T04:54:25;24.90;;;23.20;;
45274;SDS011;31019;43.780;25.948;2022-08-01T04:56:53;24.38;;;22.77;;
45274;SDS011;31019;43.780;25.948;2022-08-01T04:59:26;25.55;;;23.88;;
45274;SDS011;31019;43.780;25.948;2022-08-01T05:02:09;24.75;;;23.15;;
45274;SDS011;31019;43.780;25.948;2022-08-01T05:04:37;24.13;;;22.25;;
45274;SDS011;31019;43.780;25.948;2022-08-01T05:07:06;24.55;;;22.95;;
45274;SDS011;31019;43.780;25.948;2022-08-01T05:09:33;24.52;;;22.75;;
45274;SDS011;31019;43.780;25.948;2022-08-01T05:12:01;25.02;;;23.02;;
45274;SDS011;31019;43.780;25.948;2022-08-01T05:14:30;23.75;;;21.80;;
45274;SDS011;31019;43.780;25.948;2022-08-01T05:16:58;23.27;;;21.63;;
45274;SDS011;31019;43.780;25.948;2022-08-01T05:19:25;24.17;;;22.58;;
45274;SDS011;31019;43.780;25.948;2022-08-01T05:21:52;24.65;;;22.95;;
45274;SDS011;31019;43.780;25.948;2022-08-01T05:24:19;25.20;;;23.38;;
45274;SDS011;31019;43.780;25.948;2022-08-01T05:26:47;24.42;;;22.50;;
45274;SDS011;31019;43.780;25.948;2022-08-01T05:29:15;25.10;;;23.23;;
45274;SDS011;31019;43.780;25.948;2022-08-01T05:31:43;24.10;;;22.50;;
45274;SDS011;31019;43.780;25.948;2022-08-01T05:34:10;24.90;;;23.27;;
45274;SDS011;31019;43.780;25.948;2022-08-01T05:36:37;24.60;;;22.90;;
45274;SDS011;31019;43.780;25.948;2022-08-01T05:39:04;24.08;;;22.55;;
45274;SDS011;31019;43.780;25.948;2022-08-01T05:41:31;25.77;;;24.27;;
45274;SDS011;31019;43.780;25.948;2022-08-01T05:43:58;24.88;;;23.38;;
45274;SDS011;31019;43.780;25.948;2022-08-01T05:46:24;25.13;;;23.45;;
45274;SDS011;31019;43.780;25.948;2022-08-01T05:48:53;23.55;;;22.15;;
45274;SDS011;31019;43.780;25.948;2022-08-01T05:51:20;24.55;;;22.85;;
45274;SDS011;31019;43.780;25.948;2022-08-01T05:53:47;24.05;;;22.65;;
45274;SDS011;31019;43.780;25.948;2022-08-01T05:56:14;30.50;;;23.92;;
45274;SDS011;31019;43.780;25.948;2022-08-01T05:58:41;24.52;;;23.02;;
45274;SDS011;31019;43.780;25.948;2022-08-01T06:01:08;25.17;;;23.38;;
45274;SDS011;31019;43.780;25.948;2022-08-01T06:03:36;25.42;;;23.65;;
45274;SDS011;31019;43.780;25.948;2022-08-01T06:06:05;25.30;;;23.80;;
45274;SDS011;31019;43.780;25.948;2022-08-01T06:08:32;24.50;;;22.95;;
45274;SDS011;31019;43.780;25.948;2022-08-01T06:11:00;24.48;;;22.83;;
45274;SDS011;31019;43.780;25.948;2022-08-01T06:13:27;23.83;;;22.40;;
45274;SDS011;31019;43.780;25.948;2022-08-01T06:15:54;24.00;;;22.50;;
45274;SDS011;31019;43.780;25.948;2022-08-01T06:18:21;24.45;;;22.95;;
45274;SDS011;31019;43.780;25.948;2022-08-01T06:20:48;24.63;;;22.90;;
45274;SDS011;31019;43.780;25.948;2022-08-01T06:23:17;24.15;;;22.65;;
45274;SDS011;31019;43.780;25.948;2022-08-01T06:25:43;25.33;;;23.73;;
45274;SDS011;31019;43.780;25.948;2022-08-01T06:28:10;24.75;;;23.00;;
45274;SDS011;31019;43.780;25.948;2022-08-01T06:30:37;25.25;;;23.50;;
45274;SDS011;31019;43.780;25.948;2022-08-01T06:33:04;25.92;;;24.42;;
45274;SDS011;31019;43.780;25.948;2022-08-01T06:35:31;27.73;;;25.42;;
45274;SDS011;31019;43.780;25.948;2022-08-01T06:37:58;27.67;;;25.88;;
45274;SDS011;31019;43.780;25.948;2022-08-01T06:40:26;25.65;;;23.92;;
45274;SDS011;31019;43.780;25.948;2022-08-01T06:42:53;25.48;;;23.98;;
45274;SDS011;31019;43.780;25.948;2022-08-01T06:45:19;25.20;;;23.50;;
45274;SDS011;31019;43.780;25.948;2022-08-01T06:47:47;26.73;;;24.65;;
45274;SDS011;31019;43.780;25.948;2022-08-01T06:50:14;24.83;;;23.23;;
45274;SDS011;31019;43.780;25.948;2022-08-01T06:52:41;25.42;;;23.45;;
45274;SDS011;31019;43.780;25.948;2022-08-01T06:55:08;25.98;;;24.17;;
45274;SDS011;31019;43.780;25.948;2022-08-01T06:57:39;26.00;;;23.33;;
45274;SDS011;31019;43.780;25.948;2022-08-01T07:00:12;25.33;;;23.73;;
45274;SDS011;31019;43.780;25.948;2022-08-01T07:02:41;25.95;;;24.23;;
45274;SDS011;31019;43.780;25.948;2022-08-01T07:05:08;26.15;;;24.75;;
45274;SDS011;31019;43.780;25.948;2022-08-01T07:07:35;27.00;;;25.30;;
45274;SDS011;31019;43.780;25.948;2022-08-01T07:10:02;26.83;;;25.23;;
45274;SDS011;31019;43.780;25.948;2022-08-01T07:12:30;26.52;;;24.88;;
45274;SDS011;31019;43.780;25.948;2022-08-01T07:15:00;26.52;;;24.88;;
45274;SDS011;31019;43.780;25.948;2022-08-01T07:17:27;25.75;;;24.25;;
45274;SDS011;31019;43.780;25.948;2022-08-01T07:19:53;26.80;;;25.08;;
45274;SDS011;31019;43.780;25.948;2022-08-01T07:22:20;27.60;;;25.90;;
45274;SDS011;31019;43.780;25.948;2022-08-01T07:24:47;27.58;;;25.88;;
45274;SDS011;31019;43.780;25.948;2022-08-01T07:27:14;26.48;;;24.77;;
45274;SDS011;31019;43.780;25.948;2022-08-01T07:29:41;26.63;;;24.88;;
45274;SDS011;31019;43.780;25.948;2022-08-01T07:32:10;27.73;;;25.58;;
45274;SDS011;31019;43.780;25.948;2022-08-01T07:34:37;26.38;;;24.48;;
45274;SDS011;31019;43.780;25.948;2022-08-01T07:37:03;27.45;;;25.55;;
45274;SDS011;31019;43.780;25.948;2022-08-01T07:39:30;27.63;;;25.60;;
45274;SDS011;31019;43.780;25.948;2022-08-01T07:41:57;27.38;;;25.67;;
45274;SDS011;31019;43.780;25.948;2022-08-01T07:44:24;27.38;;;25.58;;
45274;SDS011;31019;43.780;25.948;2022-08-01T07:46:51;28.70;;;27.00;;
45274;SDS011;31019;43.780;25.948;2022-08-01T07:49:19;28.27;;;26.38;;
45274;SDS011;31019;43.780;25.948;2022-08-01T07:51:46;30.70;;;28.60;;
45274;SDS011;31019;43.780;25.948;2022-08-01T07:54:13;27.85;;;26.05;;
45274;SDS011;31019;43.780;25.948;2022-08-01T07:56:40;28.35;;;26.40;;
45274;SDS011;31019;43.780;25.948;2022-08-01T07:59:07;28.02;;;26.02;;
45274;SDS011;31019;43.780;25.948;2022-08-01T08:01:34;29.23;;;27.10;;
45274;SDS011;31019;43.780;25.948;2022-08-01T08:04:01;29.42;;;27.25;;
45274;SDS011;31019;43.780;25.948;2022-08-01T08:06:29;29.13;;;26.90;;
45274;SDS011;31019;43.780;25.948;2022-08-01T08:08:56;29.13;;;27.23;;
45274;SDS011;31019;43.780;25.948;2022-08-01T08:11:23;28.42;;;26.33;;
45274;SDS011;31019;43.780;25.948;2022-08-01T08:13:50;28.27;;;26.33;;
45274;SDS011;31019;43.780;25.948;2022-08-01T08:16:17;27.73;;;25.92;;
45274;SDS011;31019;43.780;25.948;2022-08-01T08:18:44;28.30;;;26.48;;
45274;SDS011;31019;43.780;25.948;2022-08-01T08:21:10;27.75;;;25.75;;
45274;SDS011;31019;43.780;25.948;2022-08-01T08:23:38;29.77;;;27.77;;
45274;SDS011;31019;43.780;25.948;2022-08-01T08:26:23;29.95;;;28.15;;
45274;SDS011;31019;43.780;25.948;2022-08-01T08:28:50;29.90;;;27.75;;
45274;SDS011;31019;43.780;25.948;2022-08-01T08:31:17;29.90;;;27.90;;
45274;SDS011;31019;43.780;25.948;2022-08-01T08:33:44;29.67;;;27.88;;
45274;SDS011;31019;43.780;25.948;2022-08-01T08:36:10;28.77;;;26.77;;
45274;SDS011;31019;43.780;25.948;2022-08-01T08:38:41;31.67;;;29.23;;
45274;SDS011;31019;43.780;25.948;2022-08-01T08:41:08;31.45;;;29.15;;
45274;SDS011;31019;43.780;25.948;2022-08-01T08:43:36;31.42;;;29.23;;
45274;SDS011;31019;43.780;25.948;2022-08-01T08:46:03;31.10;;;29.15;;
45274;SDS011;31019;43.780;25.948;2022-08-01T08:48:31;28.92;;;26.95;;
45274;SDS011;31019;43.780;25.948;2022-08-01T08:50:58;30.30;;;28.33;;
45274;SDS011;31019;43.780;25.948;2022-08-01T08:53:27;31.10;;;29.10;;
45274;SDS011;31019;43.780;25.948;2022-08-01T08:55:58;31.65;;;29.45;;
45274;SDS011;31019;43.780;25.948;2022-08-01T08:58:26;28.17;;;26.35;;
45274;SDS011;31019;43.780;25.948;2022-08-01T09:00:53;28.63;;;26.92;;
45274;SDS011;31019;43.780;25.948;2022-08-01T09:03:20;31.98;;;29.95;;
45274;SDS011;31019;43.780;25.948;2022-08-01T09:05:47;43.38;;;40.85;;
45274;SDS011;31019;43.780;25.948;2022-08-01T09:08:13;44.47;;;41.88;;
45274;SDS011;31019;43.780;25.948;2022-08-01T09:10:40;42.20;;;39.15;;
45274;SDS011;31019;43.780;25.948;2022-08-01T09:13:09;41.80;;;38.65;;
45274;SDS011;31019;43.780;25.948;2022-08-01T09:15:38;37.28;;;34.75;;
45274;SDS011;31019;43.780;25.948;2022-08-01T09:18:06;37.30;;;34.88;;
45274;SDS011;31019;43.780;25.948;2022-08-01T09:20:33;41.13;;;38.42;;
45274;SDS011;31019;43.780;25.948;2022-08-01T09:23:01;42.58;;;39.97;;
45274;SDS011;31019;43.780;25.948;2022-08-01T09:25:28;36.63;;;34.38;;
45274;SDS011;31019;43.780;25.948;2022-08-01T09:28:02;32.40;;;30.20;;
45274;SDS011;31019;43.780;25.948;2022-08-01T09:30:38;30.63;;;28.60;;
45274;SDS011;31019;43.780;25.948;2022-08-01T09:33:05;28.83;;;26.83;;
45274;SDS011;31019;43.780;25.948;2022-08-01T09:35:32;27.67;;;25.85;;
45274;SDS011;31019;43.780;25.948;2022-08-01T09:38:11;30.00;;;27.77;;
45274;SDS011;31019;43.780;25.948;2022-08-01T09:40:48;30.92;;;29.13;;
45274;SDS011;31019;43.780;25.948;2022-08-01T09:43:17;27.85;;;26.02;;
45274;SDS011;31019;43.780;25.948;2022-08-01T09:45:46;26.95;;;25.25;;
45274;SDS011;31019;43.780;25.948;2022-08-01T09:48:13;27.10;;;25.40;;
45274;SDS011;31019;43.780;25.948;2022-08-01T09:50:41;27.08;;;25.38;;
45274;SDS011;31019;43.780;25.948;2022-08-01T09:53:10;25.92;;;24.33;;
45274;SDS011;31019;43.780;25.948;2022-08-01T09:55:37;26.02;;;24.30;;
45274;SDS011;31019;43.780;25.948;2022-08-01T09:58:05;26.48;;;24.58;;
45274;SDS011;31019;43.780;25.948;2022-08-01T10:00:32;26.23;;;24.63;;
45274;SDS011;31019;43.780;25.948;2022-08-01T10:03:17;27.00;;;25.40;;
45274;SDS011;31019;43.780;25.948;2022-08-01T10:05:46;26.45;;;24.75;;
45274;SDS011;31019;43.780;25.948;2022-08-01T10:08:13;31.08;;;29.27;;
45274;SDS011;31019;43.780;25.948;2022-08-01T10:10:40;27.00;;;25.20;;
45274;SDS011;31019;43.780;25.948;2022-08-01T10:13:07;26.83;;;24.88;;
45274;SDS011;31019;43.780;25.948;2022-08-01T10:15:36;27.10;;;25.13;;
45274;SDS011;31019;43.780;25.948;2022-08-01T10:18:06;30.58;;;28.65;;
45274;SDS011;31019;43.780;25.948;2022-08-01T10:20:33;29.55;;;27.65;;
45274;SDS011;31019;43.780;25.948;2022-08-01T10:23:00;28.77;;;27.08;;
45274;SDS011;31019;43.780;25.948;2022-08-01T10:25:30;28.33;;;26.50;;
45274;SDS011;31019;43.780;25.948;2022-08-01T10:28:02;31.15;;;29.35;;
45274;SDS011;31019;43.780;25.948;2022-08-01T10:30:38;33.58;;;31.40;;
45274;SDS011;31019;43.780;25.948;2022-08-01T10:33:09;30.50;;;28.77;;
45274;SDS011;31019;43.780;25.948;2022-08-01T10:35:37;32.40;;;30.50;;
45274;SDS011;31019;43.780;25.948;2022-08-01T10:38:05;38.75;;;36.65;;
45274;SDS011;31019;43.780;25.948;2022-08-01T10:40:32;33.33;;;31.25;;
45274;SDS011;31019;43.780;25.948;2022-08-01T10:43:00;30.50;;;28.52;;
45274;SDS011;31019;43.780;25.948;2022-08-01T10:45:28;32.25;;;30.15;;
45274;SDS011;31019;43.780;25.948;2022-08-01T10:47:57;28.02;;;26.17;;
45274;SDS011;31019;43.780;25.948;2022-08-01T10:50:33;31.40;;;29.42;;
45274;SDS011;31019;43.780;25.948;2022-08-01T10:53:13;31.08;;;29.17;;
45274;SDS011;31019;43.780;25.948;2022-08-01T10:55:45;28.48;;;26.45;;
45274;SDS011;31019;43.780;25.948;2022-08-01T10:58:20;25.98;;;24.10;;
45274;SDS011;31019;43.780;25.948;2022-08-01T11:04:00;25.55;;;23.55;;
45274;SDS011;31019;43.780;25.948;2022-08-01T11:06:43;26.25;;;24.27;;
45274;SDS011;31019;43.780;25.948;2022-08-01T11:09:20;24.77;;;23.17;;
45274;SDS011;31019;43.780;25.948;2022-08-01T11:11:57;26.30;;;24.50;;
45274;SDS011;31019;43.780;25.948;2022-08-01T11:14:25;26.15;;;24.35;;
45274;SDS011;31019;43.780;25.948;2022-08-01T11:16:52;25.13;;;23.13;;
45274;SDS011;31019;43.780;25.948;2022-08-01T11:19:19;25.52;;;23.73;;
45274;SDS011;31019;43.780;25.948;2022-08-01T11:22:00;25.15;;;23.45;;
45274;SDS011;31019;43.780;25.948;2022-08-01T11:27:27;26.95;;;25.05;;
45274;SDS011;31019;43.780;25.948;2022-08-01T11:32:59;25.15;;;23.35;;
45274;SDS011;31019;43.780;25.948;2022-08-01T11:35:26;26.20;;;24.40;;
45274;SDS011;31019;43.780;25.948;2022-08-01T11:37:57;25.73;;;23.83;;
45274;SDS011;31019;43.780;25.948;2022-08-01T11:41:09;26.55;;;24.55;;
45274;SDS011;31019;43.780;25.948;2022-08-01T11:43:37;27.92;;;26.05;;
45274;SDS011;31019;43.780;25.948;2022-08-01T11:49:23;28.23;;;26.13;;
45274;SDS011;31019;43.780;25.948;2022-08-01T11:52:01;28.48;;;26.48;;
45274;SDS011;31019;43.780;25.948;2022-08-01T11:54:32;27.00;;;25.30;;
45274;SDS011;31019;43.780;25.948;2022-08-01T11:57:01;29.25;;;27.40;;
45274;SDS011;31019;43.780;25.948;2022-08-01T11:59:34;27.00;;;24.98;;
45274;SDS011;31019;43.780;25.948;2022-08-01T12:02:02;30.65;;;28.80;;
45274;SDS011;31019;43.780;25.948;2022-08-01T12:04:43;29.65;;;27.70;;
45274;SDS011;31019;43.780;25.948;2022-08-01T12:07:11;29.17;;;27.27;;
45274;SDS011;31019;43.780;25.948;2022-08-01T12:09:40;27.95;;;26.10;;
45274;SDS011;31019;43.780;25.948;2022-08-01T12:12:08;28.10;;;26.10;;
45274;SDS011;31019;43.780;25.948;2022-08-01T12:14:36;28.17;;;26.17;;
45274;SDS011;31019;43.780;25.948;2022-08-01T12:17:03;30.90;;;29.10;;
45274;SDS011;31019;43.780;25.948;2022-08-01T12:19:30;28.95;;;27.25;;
45274;SDS011;31019;43.780;25.948;2022-08-01T12:22:08;27.25;;;25.55;;
45274;SDS011;31019;43.780;25.948;2022-08-01T12:24:37;24.02;;;22.15;;
45274;SDS011;31019;43.780;25.948;2022-08-01T12:27:09;25.45;;;23.63;;
45274;SDS011;31019;43.780;25.948;2022-08-01T12:29:39;24.25;;;22.55;;
45274;SDS011;31019;43.780;25.948;2022-08-01T12:32:21;24.43;;;22.73;;
45274;SDS011;31019;43.780;25.948;2022-08-01T12:34:50;25.70;;;24.00;;
45274;SDS011;31019;43.780;25.948;2022-08-01T12:37:17;24.00;;;22.40;;
45274;SDS011;31019;43.780;25.948;2022-08-01T12:39:45;26.65;;;24.67;;
45274;SDS011;31019;43.780;25.948;2022-08-01T12:42:14;39.30;;;37.03;;
45274;SDS011;31019;43.780;25.948;2022-08-01T12:44:42;38.63;;;36.13;;
45274;SDS011;31019;43.780;25.948;2022-08-01T12:47:11;39.85;;;37.50;;
45274;SDS011;31019;43.780;25.948;2022-08-01T12:49:40;38.25;;;36.05;;
45274;SDS011;31019;43.780;25.948;2022-08-01T12:52:09;37.22;;;34.92;;
45274;SDS011;31019;43.780;25.948;2022-08-01T12:57:31;38.45;;;36.05;;
45274;SDS011;31019;43.780;25.948;2022-08-01T13:00:05;40.17;;;37.60;;
45274;SDS011;31019;43.780;25.948;2022-08-01T13:02:41;37.85;;;35.55;;
45274;SDS011;31019;43.780;25.948;2022-08-01T13:05:09;35.90;;;33.90;;
45274;SDS011;31019;43.780;25.948;2022-08-01T13:07:38;38.03;;;35.85;;
45274;SDS011;31019;43.780;25.948;2022-08-01T13:10:06;42.28;;;40.03;;
45274;SDS011;31019;43.780;25.948;2022-08-01T13:12:35;36.22;;;33.92;;
45274;SDS011;31019;43.780;25.948;2022-08-01T13:15:19;37.00;;;34.63;;
45274;SDS011;31019;43.780;25.948;2022-08-01T13:17:49;37.58;;;35.30;;
45274;SDS011;31019;43.780;25.948;2022-08-01T13:20:23;37.10;;;34.63;;
45274;SDS011;31019;43.780;25.948;2022-08-01T13:22:52;34.25;;;32.25;;
45274;SDS011;31019;43.780;25.948;2022-08-01T13:25:20;34.75;;;32.75;;
45274;SDS011;31019;43.780;25.948;2022-08-01T13:27:48;36.70;;;34.63;;
45274;SDS011;31019;43.780;25.948;2022-08-01T13:30:18;26.02;;;24.23;;
45274;SDS011;31019;43.780;25.948;2022-08-01T13:32:56;26.65;;;24.85;;
45274;SDS011;31019;43.780;25.948;2022-08-01T13:35:24;25.85;;;23.98;;
45274;SDS011;31019;43.780;25.948;2022-08-01T13:37:51;28.30;;;26.40;;
45274;SDS011;31019;43.780;25.948;2022-08-01T13:40:23;28.10;;;26.10;;
45274;SDS011;31019;43.780;25.948;2022-08-01T13:42:53;25.55;;;23.95;;
45274;SDS011;31019;43.780;25.948;2022-08-01T13:45:22;30.27;;;28.08;;
45274;SDS011;31019;43.780;25.948;2022-08-01T13:47:48;28.17;;;25.98;;
45274;SDS011;31019;43.780;25.948;2022-08-01T13:50:16;26.77;;;24.88;;
45274;SDS011;31019;43.780;25.948;2022-08-01T13:52:43;25.38;;;23.67;;
45274;SDS011;31019;43.780;25.948;2022-08-01T13:55:10;24.90;;;23.40;;
45274;SDS011;31019;43.780;25.948;2022-08-01T13:57:37;25.33;;;23.73;;
45274;SDS011;31019;43.780;25.948;2022-08-01T14:00:06;24.90;;;23.30;;
45274;SDS011;31019;43.780;25.948;2022-08-01T14:02:35;25.88;;;24.15;;
45274;SDS011;31019;43.780;25.948;2022-08-01T14:05:02;29.30;;;27.33;;
45274;SDS011;31019;43.780;25.948;2022-08-01T14:07:29;27.70;;;26.00;;
45274;SDS011;31019;43.780;25.948;2022-08-01T14:09:56;27.33;;;25.52;;
45274;SDS011;31019;43.780;25.948;2022-08-01T14:12:23;27.20;;;24.95;;
45274;SDS011;31019;43.780;25.948;2022-08-01T14:14:50;26.88;;;25.00;;
45274;SDS011;31019;43.780;25.948;2022-08-01T14:17:23;25.92;;;24.30;;
45274;SDS011;31019;43.780;25.948;2022-08-01T14:19:51;28.50;;;26.70;;
45274;SDS011;31019;43.780;25.948;2022-08-01T14:22:18;29.60;;;27.80;;
45274;SDS011;31019;43.780;25.948;2022-08-01T14:24:45;29.17;;;27.27;;
45274;SDS011;31019;43.780;25.948;2022-08-01T14:27:12;27.00;;;25.30;;
45274;SDS011;31019;43.780;25.948;2022-08-01T14:29:39;26.25;;;24.52;;
45274;SDS011;31019;43.780;25.948;2022-08-01T14:32:06;27.65;;;25.63;;
45274;SDS011;31019;43.780;25.948;2022-08-01T14:34:34;26.23;;;24.20;;
45274;SDS011;31019;43.780;25.948;2022-08-01T14:37:01;31.08;;;28.98;;
45274;SDS011;31019;43.780;25.948;2022-08-01T14:39:28;31.23;;;29.33;;
45274;SDS011;31019;43.780;25.948;2022-08-01T14:41:55;30.27;;;28.17;;
45274;SDS011;31019;43.780;25.948;2022-08-01T14:44:22;31.25;;;29.17;;
45274;SDS011;31019;43.780;25.948;2022-08-01T14:46:49;28.85;;;26.85;;